KFSD

Joe Foss Field Airport

Sioux Falls, South Dakota, USA
METAR KFSD 150256Z 07004KT 9SM FEW020 SCT080 SCT100 BKN250 23/21 A2994 RMK AO2 SLP129 T02280211 53000 $
Observed Flight Rules
Aug-15 @ 02:56 UTC (40 minutes ago) Visual Flight Rules
Wind Visibility Clouds
70° at 4 knots 9 miles
  • Few at 2,000' AGL
  • Scattered at 8,000' AGL
  • Scattered at 10,000' AGL
  • Broken at 25,000' AGL
Temperatures Readings
Current 23°C / 73°F
Dewpoint 21°C / 70°F
Humidity 89%
Altimeter 29.94" Hg
Pressure 1012.9 hPa
Elevation 436
METAR KFSD 150256Z 07004KT 9SM FEW020 SCT080 SCT100 BKN250 23/21 A2994 RMK AO2 SLP129 T02280211 53000 $
Observed Flight Rules
Aug-15 @ 02:56 UTC
(40 minutes ago)
VFR
Wind Visibility
70° at 4 knots 9 miles
Clouds
  • Few at 2,000' AGL
  • Scattered at 8,000' AGL
  • Scattered at 10,000' AGL
  • Broken at 25,000' AGL
Temperature Dewpoint
23°C / 73°F 21°C / 70°F
Humidity Altimeter Pressure
89% 29.94" Hg 1012.9 hPa